Bellbrook, Ohio
Current Conditions -  °F | °C
As of 8:53 AM on Monday 20 Oct 2014 (Local Time) from KMGY Reporting Station
Broken Clouds Broken Clouds  
Wind Chill: 44°   Ceiling: 10000
Heat Index: 48°   Visibility: 10mi
Dew Point: 44°   Wind: 9mph
Humidity: 86%   Direction: 190°S
Pressure: 29.99"   Gusts: NA
Location:  39.64°N, 84.07°W
Report Text: KMGY 201253Z AUTO 19008KT 10SM BKN100 09/07 A2999 RMK AO2 SLP157 T00890067
Loading
Personal Weather Stations






























Interactive Weather Map
Tropical Storm Tracking
New forecast layout! Learn more

10-Day Weather Forecast

Advertisements
Track Severe Weather on mobile